Glen Richey, PA (16837)

11:21 PM EST on February 11, 2016 (GMT -0500)
Twinoaks | | Change Station
CLOSE
Current Station
Personal Weather Station
Location: Curwensville, PA
Elevation: 1493 ft
Nearby Weather Stations

Elev 1493 ft 40.99 °N, 78.53 °W | Updated 12 minutes ago

Clear
Clear
4.1 °F
Feels Like 4 °F
N
1.7
Wind Variable Wind from West

Today
High -- | Low -- °F
--% Chance of Precip.
Yesterday
High -- | Low -- °F
Precip. -- in
Pressure 30.27 in
Visibility 10.0 miles
Clouds Clear
Windchill 4 °F
Dew Point 3 °F
Humidity 94%
Rainfall 0.00 in
Snow Depth Not available.
7:13 AM 5:42 PM
Waxing Crescent, 17% visible
METAR KFIG 120354Z AUTO 25005KT 10SM CLR M13/M17 A3018 RMK AO2 SLP251 T11331172
Pressure 30.27 in
Visibility 10.0 miles
Clouds Clear
Windchill 4 °F
Dew Point 3 °F
Humidity 94%
Rainfall 0.00 in
Snow Depth Not available.
7:13 AM 5:42 PM
Waxing Crescent, 17% visible
METAR KFIG 120354Z AUTO 25005KT 10SM CLR M13/M17 A3018 RMK AO2 SLP251 T11331172

10-Day Weather Forecast

Almanac

Astronomy

Feb. 11, 2016 Rise Set
Actual Time
Civil Twilight
Nautical Twilight
Astronomical Twilight
Moon
Length of Visible Light
Length of Day
Tomorrow will be .
, % of the Moon is Illuminated

Today's Extremes

State Highs State Lows

Community

WunderPhotos

Upload Photos

1,892,266 photos uploaded!

WunderBlog® & News

Nearby

Air Quality

  Air Quality AQ Index Pollutant
Not available.

Snow Depth

Station Depth Elevation

Earthquake Activity

City Distance Mag. Time & Date
Minimum magnitude displayed is 2.5.

Coastal Water Temperatures

Place Temperature

Stations

Nearby Weather Stations

Station Location Temp. Windchill Dew Point Humidity Wind Precip. Elev Updated Type
                   

Watches & Warnings

There are currently no watches in effect.